Terminal Aerodrome Forecast
Issued by NWS Cleveland, OH

Home | Current Version | Previous Version | Graphics & Text | Print | Product List | Glossary On
Versions: 1 2 3 4 5 6 7 8 9 10 11 12 13 14 15
000
FTUS41 KCLE 210529
TAFERI
TAF
KERI 210529Z 2106/2206 10006KT P6SM OVC250
     FM211500 18014G20KT P6SM OVC250
     FM211800 20012G18KT P6SM OVC120
     FM212200 20010KT 6SM -SHRA BR OVC035
     FM220000 20006KT 4SM -SHRA BR OVC015=

USA.gov is the U.S. government's official web portal to all federal, state and local government web resources and services.